WetterOnline ( https://www.wetteronline.de )

Wetter aktuell Saarlouis

Aktuelles Wetter: Berus (367m)

6-stündlich | Neueste Meldungen
Ortszeit Temperatur Wetter
Mi, 25.11. 7:00 1.9° C Nebel
Mi, 25.11. 1:00 3.1° C Nebel
Di, 24.11. 19:00 3.4° C bedeckt
Di, 24.11. 13:00 2.7° C Nebel
Di, 24.11. 7:00 1.2° C Nebel
Di, 24.11. 1:00 4.0° C Nebel
Mo, 23.11. 19:00 6.2° C bedeckt
Mo, 23.11. 13:00 6.4° C bedeckt
Ortszeit Temperatur Wetter
Mi, 25.11. 12:30 6.8° C wolkenlos
Mi, 25.11. 12:20 6.8° C wolkenlos
Mi, 25.11. 12:10 6.5° C wolkenlos
Mi, 25.11. 12:00 5.4° C fast wolkenlos
Mi, 25.11. 11:50 5.4° C fast wolkenlos
Mi, 25.11. 11:40 4.9° C fast wolkenlos
Mi, 25.11. 11:30 3.9° C wolkenlos
Mi, 25.11. 11:00 3.6° C fast wolkenlos
Mi, 25.11. 10:30 2.8° C leicht bewölkt
Mi, 25.11. 10:00 2.0° C Nebel
Mi, 25.11. 9:30 1.7° C Nebel
Ortszeit Relative Feuchte Sichtweite
Mi, 25.11. 7:00 100% 100 m
Mi, 25.11. 1:00 99% 100 m
Di, 24.11. 19:00 100% 1.7 km
Di, 24.11. 13:00 100% 100 m
Di, 24.11. 7:00 100% <100 m
Di, 24.11. 1:00 100% 100 m
Mo, 23.11. 19:00 96% 7 km
Mo, 23.11. 13:00 94% 11 km
Ortszeit Relative Feuchte Sichtweite
Mi, 25.11. 12:30 83% 26 km
Mi, 25.11. 12:20 83% -
Mi, 25.11. 12:10 85% -
Mi, 25.11. 12:00 86% 21 km
Mi, 25.11. 11:50 86% -
Mi, 25.11. 11:40 87% -
Mi, 25.11. 11:30 90% 15 km
Mi, 25.11. 11:00 92% 11 km
Mi, 25.11. 10:30 99% 5.0 km
Mi, 25.11. 10:00 99% 0.3 km
Mi, 25.11. 9:30 99% 100 m
Ortszeit Niederschlagsmenge Niederschlagsart
Mi, 25.11. 7:00 0.0 l/m2 in 12 Std. -
Mi, 25.11. 1:00 0.0 l/m2 in 6 Std. -
Di, 24.11. 19:00 0.0 l/m2 in 12 Std. -
Di, 24.11. 13:00 0.0 l/m2 in 6 Std. -
Di, 24.11. 7:00 0.0 l/m2 in 12 Std. -
Di, 24.11. 1:00 0.0 l/m2 in 6 Std. -
Mo, 23.11. 19:00 0.5 l/m2 in 12 Std. -
Mo, 23.11. 13:00 0.5 l/m2 in 6 Std. Regen
Ortszeit Niederschlagsmenge Niederschlagsart
Mi, 25.11. 12:30 0.0 l/m2 in 1 Std. -
Mi, 25.11. 12:20 keine Meldung -
Mi, 25.11. 12:10 keine Meldung -
Mi, 25.11. 12:00 0.0 l/m2 in 1 Std. -
Mi, 25.11. 11:50 keine Meldung -
Mi, 25.11. 11:40 keine Meldung -
Mi, 25.11. 11:30 0.0 l/m2 in 1 Std. -
Mi, 25.11. 11:00 0.0 l/m2 in 1 Std. -
Mi, 25.11. 10:30 0.0 l/m2 in 1 Std. -
Mi, 25.11. 10:00 0.0 l/m2 in 1 Std. -
Mi, 25.11. 9:30 0.0 l/m2 in 1 Std. -
Ortszeit Stärke Spitze Richtung
km/h Bft. km/h Grad Sektor
Mi, 25.11. 7:00 4 1 18 120° SO
Mi, 25.11. 1:00 9 2 17 100° O
Di, 24.11. 19:00 11 2 18 90° O
Di, 24.11. 13:00 6 1 20 110° O
Di, 24.11. 7:00 7 2 11 40° NO
Di, 24.11. 1:00 9 2 15 90° O
Mo, 23.11. 19:00 7 2 14 170° S
Mo, 23.11. 13:00 4 1 14 360° N
Ortszeit Stärke Spitze Richtung
km/h Bft. km/h Grad Sektor
Mi, 25.11. 12:30 7 2 11 180° S
Mi, 25.11. 12:20 7 2 - 180° S
Mi, 25.11. 12:10 7 2 - 180° S
Mi, 25.11. 12:00 7 2 13 180° S
Mi, 25.11. 11:50 7 2 - 180° S
Mi, 25.11. 11:40 7 2 - 170° S
Mi, 25.11. 11:30 7 2 11 170° S
Mi, 25.11. 11:00 4 1 11 160° S
Mi, 25.11. 10:30 6 1 11 170° S
Mi, 25.11. 10:00 4 1 11 120° SO
Mi, 25.11. 9:30 6 1 11 150° SO
Ortszeit Untergrenze Bedeckung Gattung
total tief tief mittel hoch
Mi, 25.11. 7:00 <30 m 8/8 0/8 - - -
Mi, 25.11. 1:00 <30 m 8/8 0/8 - - -
Di, 24.11. 19:00 30 m 8/8 8/8 - - -
Di, 24.11. 13:00 <30 m 8/8 0/8 - - -
Di, 24.11. 7:00 <30 m 8/8 0/8 - - -
Di, 24.11. 1:00 <30 m 8/8 0/8 - - -
Mo, 23.11. 19:00 180 m 8/8 8/8 - - -
Mo, 23.11. 13:00 90 m 8/8 8/8 - - -
Ortszeit Bedeckungsgrad in Achtel und Wolkenuntergrenze
Mi, 25.11. 12:30 keine Wolken
Mi, 25.11. 12:20 keine Wolken
Mi, 25.11. 12:10 keine Wolken
Mi, 25.11. 12:00 1(9000m)
Mi, 25.11. 11:50 1(9000m)
Mi, 25.11. 11:40 2(9000m)
Mi, 25.11. 11:30 1(9000m)
Mi, 25.11. 11:00 1(30m)
Mi, 25.11. 10:30 4(<30m)
Mi, 25.11. 10:00 7(<30m)
Mi, 25.11. 9:30 7(<30m)
Ortszeit Luftdruck NN (hPa) Tendenz (hPa in 3 Std.)
Mi, 25.11. 7:00 1020 - 0,2
Mi, 25.11. 1:00 1021 - 1,0
Di, 24.11. 19:00 1023 - 0,6
Di, 24.11. 13:00 1026 - 1,3
Di, 24.11. 7:00 1027 - 0,8
Di, 24.11. 1:00 1029 - 0,8
Mo, 23.11. 19:00 1030 - 0,1
Mo, 23.11. 13:00 1031 0,0
Ortszeit Luftdruck NN (hPa) Tendenz (hPa in 3 Std.)
Mi, 25.11. 12:30 1020 - 0,1
Mi, 25.11. 12:20 1020 keine Meldung
Mi, 25.11. 12:10 1020 keine Meldung
Mi, 25.11. 12:00 1020 0,0
Mi, 25.11. 11:50 1020 keine Meldung
Mi, 25.11. 11:40 1021 keine Meldung
Mi, 25.11. 11:30 1021 + 0,4
Mi, 25.11. 11:00 1021 + 0,9
Mi, 25.11. 10:30 1021 + 0,9
Mi, 25.11. 10:00 1021 + 0,9
Mi, 25.11. 9:30 1021 + 0,8
Ortszeit Schneehöhe (cm)
Mi, 25.11. 7:00 0
Mi, 25.11. 1:00 0
Di, 24.11. 19:00 0
Di, 24.11. 13:00 0
Di, 24.11. 7:00 0
Di, 24.11. 1:00 0
Mo, 23.11. 19:00 0
Mo, 23.11. 13:00 0
Ortszeit Schneehöhe (cm)
Mi, 25.11. 12:30 0
Mi, 25.11. 12:20 0
Mi, 25.11. 12:10 0
Mi, 25.11. 12:00 0
Mi, 25.11. 11:50 0
Mi, 25.11. 11:40 0
Mi, 25.11. 11:30 0
Mi, 25.11. 11:00 0
Mi, 25.11. 10:30 0
Mi, 25.11. 10:00 0
Mi, 25.11. 9:30 0
Link zu dieser Seite / Seite empfehlen

Das Wetter in ...